Airport View

Enter AWOS ICAO identifier for current METAR.

ex. KFNL

PAWI 192153Z AUTO 09019KT 10SM OVC013 M02/M06 A2966 RMK SLP043 T10221061 TSNO VIA AUTODIAL

19 Oct 2019 22:46

Frequency: 132.25

Phone: 907-763-8881

Other Area AWOS: PATQ - PABR - PPIZ

TAF PABR 191738Z 1918/2018 11016KT P6SM OVC025 FM201200 11013KT 4SM BR BKN007 OVC015 FM201500 11012KT P6SM OVC015